Fitch, Kentucky
Current Conditions -  °F | °C
As of 7:10 PM on Wednesday 22 Oct 2014 (Local Time) from KSYM Reporting Station
Overcast Overcast  
Wind Chill: 50°   Ceiling: 3000
Heat Index: 50°   Visibility: 10mi
Dew Point: 41°   Wind: 3mph
Humidity: 71%   Direction: 330°NNW
Pressure: 30.27"   Gusts: NA
Location:  38.3543°N, 83.1837°W
Report Text: KSYM 222310Z AUTO 33003KT 10SM OVC030 10/05 A3027 RMK AO2
Loading
Personal Weather Stations






























Interactive Weather Map
Tropical Storm Tracking
New forecast layout! Learn more

10-Day Weather Forecast

Advertisements
Track Severe Weather on mobile